createdAt,value
2018-02-21T00:01:00.409Z,67.40
2018-02-21T00:03:29.364Z,65.77
2018-02-21T00:05:58.476Z,61.60
2018-02-21T00:08:27.489Z,61.27
2018-02-21T00:10:55.751Z,65.27
2018-02-21T00:13:24.137Z,61.00
2018-02-21T00:15:52.348Z,60.30
2018-02-21T00:18:20.556Z,62.23
2018-02-21T00:20:49.652Z,58.57
2018-02-21T00:23:17.857Z,67.80
2018-02-21T00:25:46.105Z,63.57
2018-02-21T00:28:15.136Z,64.57
2018-02-21T00:30:43.379Z,66.03
2018-02-21T00:33:12.359Z,62.30
2018-02-21T00:35:40.613Z,66.20
2018-02-21T00:38:08.945Z,64.77
2018-02-21T00:40:37.170Z,60.57
2018-02-21T00:43:05.489Z,61.83
2018-02-21T00:45:34.496Z,63.57
2018-02-21T00:48:02.716Z,63.23
2018-02-21T00:50:31.052Z,61.00
2018-02-21T00:52:59.390Z,62.93
2018-02-21T00:55:27.680Z,61.17
2018-02-21T00:57:56.740Z,67.23
2018-02-21T01:00:25.325Z,61.77
2018-02-21T01:02:53.580Z,59.37
2018-02-21T01:05:21.844Z,62.13
2018-02-21T01:07:50.085Z,65.33
2018-02-21T01:10:19.069Z,65.13
2018-02-21T01:12:48.101Z,62.13
2018-02-21T01:15:16.325Z,63.47
2018-02-21T01:17:45.351Z,63.30
2018-02-21T01:20:14.392Z,63.80
2018-02-21T01:22:42.621Z,61.17
2018-02-21T01:25:10.891Z,66.33
2018-02-21T01:27:39.205Z,60.80
2018-02-21T01:30:07.461Z,61.73
2018-02-21T01:32:35.714Z,58.73
2018-02-21T01:35:04.717Z,66.63
2018-02-21T01:37:33.812Z,62.73
2018-02-21T01:40:02.789Z,64.77
2018-02-21T01:42:32.121Z,67.87
2018-02-21T01:45:01.064Z,61.97
2018-02-21T01:47:29.281Z,63.63
2018-02-21T01:49:57.623Z,66.17
2018-02-21T01:52:25.869Z,63.07
2018-02-21T01:54:54.081Z,59.33
2018-02-21T01:57:22.339Z,60.30
2018-02-21T01:59:50.536Z,57.10
2018-02-21T02:02:18.790Z,64.80
2018-02-21T02:04:48.340Z,64.57
2018-02-21T02:07:17.386Z,65.50
2018-02-21T02:09:45.601Z,66.03
2018-02-21T02:12:14.636Z,66.50
2018-02-21T02:14:42.885Z,60.43
2018-02-21T02:17:11.120Z,56.13
2018-02-21T02:19:39.460Z,60.17
2018-02-21T02:22:07.665Z,58.33
2018-02-21T02:24:35.870Z,61.43
2018-02-21T02:27:04.939Z,58.20
2018-02-21T02:29:33.164Z,57.13
2018-02-21T02:32:01.441Z,58.43
2018-02-21T02:34:29.809Z,56.57
2018-02-21T02:36:58.038Z,57.97
2018-02-21T02:39:38.102Z,54.17
2018-02-21T02:42:06.372Z,55.57
2018-02-21T02:44:34.657Z,53.30
2018-02-21T02:47:02.953Z,58.37
2018-02-21T02:49:31.260Z,57.53
2018-02-21T02:51:59.508Z,57.10
2018-02-21T02:54:28.522Z,55.73
2018-02-21T02:56:56.758Z,57.10
2018-02-21T02:59:25.018Z,60.60
2018-02-21T03:01:53.267Z,54.67
2018-02-21T03:04:21.486Z,58.70
2018-02-21T03:06:50.747Z,58.03
2018-02-21T03:09:19.044Z,58.40
2018-02-21T03:11:47.318Z,56.83
2018-02-21T03:14:15.558Z,59.10
2018-02-21T03:16:43.917Z,62.30
2018-02-21T03:19:12.892Z,59.63
2018-02-21T03:21:41.871Z,57.70
2018-02-21T03:24:10.114Z,58.53
2018-02-21T03:26:38.389Z,58.87
2018-02-21T03:29:06.649Z,55.90
2018-02-21T03:31:36.378Z,56.50
2018-02-21T03:34:04.687Z,58.77
2018-02-21T03:36:32.902Z,58.47
2018-02-21T03:39:01.306Z,57.47
2018-02-21T03:41:29.537Z,57.53
2018-02-21T03:43:57.760Z,59.07
2018-02-21T03:46:26.044Z,56.73
2018-02-21T03:48:54.280Z,58.13
2018-02-21T03:51:22.531Z,57.93
2018-02-21T03:53:52.104Z,57.37
2018-02-21T03:56:21.079Z,60.07
2018-02-21T03:58:49.294Z,56.93
2018-02-21T04:01:17.608Z,53.37
2018-02-21T04:03:45.821Z,51.97
2018-02-21T04:06:14.067Z,60.70
2018-02-21T04:08:43.255Z,59.03
2018-02-21T04:11:11.501Z,55.07
2018-02-21T04:13:39.839Z,57.47
2018-02-21T04:16:10.082Z,56.60
2018-02-21T04:18:38.409Z,57.40
2018-02-21T04:21:07.400Z,58.17
2018-02-21T04:23:36.416Z,54.77
2018-02-21T04:26:04.713Z,57.50
2018-02-21T04:28:32.916Z,57.37
2018-02-21T04:31:01.278Z,59.57
2018-02-21T04:33:29.465Z,54.97
2018-02-21T04:35:57.774Z,58.83
2018-02-21T04:38:27.036Z,58.07
2018-02-21T04:40:55.228Z,59.20
2018-02-21T04:43:24.217Z,61.57
2018-02-21T04:45:52.855Z,59.67
2018-02-21T04:48:20.981Z,59.23
2018-02-21T04:50:49.952Z,55.40
2018-02-21T04:53:18.189Z,58.60
2018-02-21T04:55:52.236Z,57.47
2018-02-21T04:58:30.481Z,58.20
2018-02-21T05:00:59.450Z,58.63
2018-02-21T05:03:28.087Z,56.80
2018-02-21T05:05:56.370Z,59.97
2018-02-21T05:08:24.600Z,57.63
2018-02-21T05:10:52.874Z,56.10
2018-02-21T05:13:21.651Z,55.73
2018-02-21T05:15:49.944Z,53.13
2018-02-21T05:18:18.207Z,55.03
2018-02-21T05:20:46.684Z,55.03
2018-02-21T05:23:14.957Z,57.03
2018-02-21T05:25:43.172Z,56.60
2018-02-21T05:28:12.220Z,56.43
2018-02-21T05:30:40.448Z,59.53
2018-02-21T05:33:08.661Z,57.37
2018-02-21T05:35:37.019Z,56.73
2018-02-21T05:38:05.425Z,57.07
2018-02-21T05:40:33.702Z,56.90
2018-02-21T05:43:03.134Z,55.60
2018-02-21T05:45:31.868Z,57.93
2018-02-21T05:48:00.488Z,57.70
2018-02-21T05:50:29.894Z,56.80
2018-02-21T05:52:59.145Z,57.63
2018-02-21T05:55:27.460Z,53.30
2018-02-21T05:57:55.887Z,55.67
2018-02-21T06:00:24.115Z,52.77
2018-02-21T06:02:52.331Z,54.50
2018-02-21T06:05:21.424Z,54.13
2018-02-21T06:07:50.462Z,54.77
2018-02-21T06:10:19.920Z,55.20
2018-02-21T06:12:48.911Z,53.90
2018-02-21T06:15:18.006Z,52.50
2018-02-21T06:17:47.107Z,56.30
2018-02-21T06:20:15.408Z,54.03
2018-02-21T06:22:43.664Z,50.80
2018-02-21T06:25:12.656Z,54.90
2018-02-21T06:27:41.672Z,56.20
2018-02-21T06:30:09.901Z,51.87
2018-02-21T06:32:38.165Z,53.97
2018-02-21T06:35:06.488Z,52.97
2018-02-21T06:37:35.477Z,55.53
2018-02-21T06:40:04.525Z,52.23
2018-02-21T06:42:32.761Z,54.40
2018-02-21T06:45:01.106Z,54.10
2018-02-21T06:47:29.328Z,49.57
2018-02-21T06:49:57.606Z,53.90
2018-02-21T06:52:25.849Z,51.93
2018-02-21T06:54:54.868Z,55.30
2018-02-21T06:57:23.261Z,54.13
2018-02-21T06:59:51.494Z,50.20
2018-02-21T07:02:32.367Z,53.10
2018-02-21T07:05:01.357Z,49.57
2018-02-21T07:07:30.341Z,50.00
2018-02-21T07:09:59.401Z,50.73
2018-02-21T07:12:27.646Z,46.33
2018-02-21T07:14:55.888Z,50.27
2018-02-21T07:17:24.920Z,53.63
2018-02-21T07:19:53.868Z,51.60
2018-02-21T07:22:22.097Z,52.97
2018-02-21T07:24:50.328Z,47.00
2018-02-21T07:27:19.312Z,48.37
2018-02-21T07:29:47.517Z,48.50
2018-02-21T07:32:15.816Z,46.63
2018-02-21T07:34:44.049Z,49.50
2018-02-21T07:37:12.253Z,49.27
2018-02-21T07:39:40.504Z,49.93
2018-02-21T07:42:09.534Z,49.97
2018-02-21T07:44:37.777Z,49.90
2018-02-21T07:47:06.804Z,48.87
2018-02-21T07:49:35.057Z,45.73
2018-02-21T07:54:44.022Z,47.47
2018-02-21T07:57:12.217Z,51.43
2018-02-21T07:59:40.432Z,47.40
2018-02-21T08:02:09.424Z,47.77
2018-02-21T08:04:38.462Z,46.00
2018-02-21T08:07:06.711Z,45.30
2018-02-21T08:09:34.941Z,43.37
2018-02-21T08:12:03.158Z,46.03
2018-02-21T08:14:32.159Z,44.27
2018-02-21T08:17:00.532Z,42.33
2018-02-21T08:19:29.560Z,42.70
2018-02-21T08:21:57.822Z,43.07
2018-02-21T08:24:26.058Z,44.47
2018-02-21T08:26:54.333Z,43.07
2018-02-21T08:29:22.553Z,40.70
2018-02-21T08:31:50.884Z,42.20
2018-02-21T08:34:19.084Z,41.30
2018-02-21T08:36:47.388Z,40.80
2018-02-21T08:39:15.714Z,40.17
2018-02-21T08:41:43.988Z,42.53
2018-02-21T08:44:12.224Z,42.40
2018-02-21T08:46:40.523Z,40.60
2018-02-21T08:49:08.728Z,43.07
2018-02-21T08:51:37.742Z,42.90
2018-02-21T08:54:05.982Z,42.80
2018-02-21T08:56:34.315Z,41.10
2018-02-21T08:59:02.537Z,43.60
2018-02-21T09:01:30.886Z,43.10
2018-02-21T09:03:59.162Z,39.23
2018-02-21T09:06:28.012Z,43.23
2018-02-21T09:08:56.259Z,40.27
2018-02-21T09:11:24.457Z,42.03
2018-02-21T09:13:53.461Z,42.50
2018-02-21T09:16:22.492Z,42.97
2018-02-21T09:18:50.720Z,42.10
2018-02-21T09:21:19.708Z,41.27
2018-02-21T09:23:48.704Z,38.83
2018-02-21T09:26:17.666Z,38.13
2018-02-21T09:28:45.881Z,39.67
2018-02-21T09:31:14.971Z,40.83
2018-02-21T09:33:44.102Z,40.43
2018-02-21T09:36:12.306Z,41.90
2018-02-21T09:38:40.541Z,41.33
2018-02-21T09:41:08.816Z,42.40
2018-02-21T09:43:37.086Z,40.23
2018-02-21T09:46:06.149Z,40.77
2018-02-21T09:51:10.555Z,41.07
2018-02-21T09:53:38.749Z,40.80
2018-02-21T09:56:06.946Z,39.73
2018-02-21T09:58:35.966Z,40.30
2018-02-21T10:01:04.245Z,39.00
2018-02-21T10:03:32.425Z,40.23
2018-02-21T10:06:00.727Z,41.73
2018-02-21T10:08:29.059Z,38.63
2018-02-21T10:10:57.264Z,39.03
2018-02-21T10:13:25.504Z,39.87
2018-02-21T10:15:54.524Z,41.27
2018-02-21T10:18:22.742Z,38.17
2018-02-21T10:20:50.973Z,37.37
2018-02-21T10:23:19.177Z,36.53
2018-02-21T10:25:47.393Z,35.47
2018-02-21T10:28:15.641Z,35.50
2018-02-21T10:30:43.889Z,37.20
2018-02-21T10:33:12.094Z,36.57
2018-02-21T10:35:40.361Z,36.90
2018-02-21T10:38:08.608Z,37.20
2018-02-21T10:40:36.821Z,35.57
2018-02-21T10:43:05.109Z,37.83
2018-02-21T10:45:35.371Z,37.07
2018-02-21T10:48:03.539Z,38.50
2018-02-21T10:50:32.732Z,38.40
2018-02-21T10:53:01.710Z,37.97
2018-02-21T10:55:30.768Z,37.30
2018-02-21T10:57:59.125Z,39.67
2018-02-21T11:00:33.106Z,40.13
2018-02-21T11:03:02.105Z,41.00
2018-02-21T11:05:31.112Z,40.10
2018-02-21T11:07:59.329Z,42.40
2018-02-21T11:10:29.093Z,39.13
2018-02-21T11:12:57.371Z,39.43
2018-02-21T11:15:26.362Z,38.47
2018-02-21T11:17:56.036Z,38.70
2018-02-21T11:20:24.265Z,39.60
2018-02-21T11:22:52.461Z,40.53
2018-02-21T11:25:20.864Z,40.17
2018-02-21T11:27:49.080Z,41.47
2018-02-21T11:30:18.109Z,41.53
2018-02-21T11:32:46.375Z,39.70
2018-02-21T11:35:14.565Z,42.63
2018-02-21T11:37:42.763Z,42.77
2018-02-21T11:40:10.981Z,42.30
2018-02-21T11:42:39.178Z,41.47
2018-02-21T11:45:07.419Z,40.70
2018-02-21T11:47:35.675Z,40.67
2018-02-21T11:50:03.837Z,43.47
2018-02-21T11:52:32.074Z,43.83
2018-02-21T11:55:00.365Z,44.37
2018-02-21T11:57:28.575Z,41.73
2018-02-21T11:59:56.780Z,43.30
2018-02-21T12:02:25.025Z,42.27
2018-02-21T12:04:53.227Z,43.87
2018-02-21T12:07:22.213Z,43.67
2018-02-21T12:09:50.588Z,43.97
2018-02-21T12:12:18.784Z,45.67
2018-02-21T12:14:46.977Z,43.33
2018-02-21T12:17:15.230Z,42.87
2018-02-21T12:19:43.562Z,44.47
2018-02-21T12:22:11.756Z,41.23
2018-02-21T12:24:40.764Z,39.53
2018-02-21T12:27:09.736Z,39.60
2018-02-21T12:29:37.940Z,40.07
2018-02-21T12:32:08.176Z,40.77
2018-02-21T12:34:36.438Z,40.23
2018-02-21T12:37:04.632Z,41.93
2018-02-21T12:39:36.496Z,38.77
2018-02-21T12:42:04.711Z,37.57
2018-02-21T12:44:32.921Z,38.03
2018-02-21T12:47:01.159Z,35.87
2018-02-21T12:49:29.408Z,41.00
2018-02-21T12:51:57.631Z,40.23
2018-02-21T12:54:26.623Z,40.03
2018-02-21T12:56:55.605Z,41.47
2018-02-21T12:59:23.842Z,38.77
2018-02-21T13:01:52.866Z,40.00
2018-02-21T13:04:21.077Z,45.00
2018-02-21T13:06:49.285Z,41.30
2018-02-21T13:09:17.553Z,40.17
2018-02-21T13:11:45.795Z,38.83
2018-02-21T13:14:14.877Z,40.07
2018-02-21T13:16:43.870Z,39.87
2018-02-21T13:19:12.848Z,39.83
2018-02-21T13:21:42.331Z,40.00
2018-02-21T13:24:10.677Z,39.83
2018-02-21T13:26:38.882Z,42.07
2018-02-21T13:29:07.130Z,40.80
2018-02-21T13:31:36.125Z,39.93
2018-02-21T13:34:04.362Z,41.13
2018-02-21T13:36:32.590Z,40.30
2018-02-21T13:39:00.820Z,39.70
2018-02-21T13:41:29.810Z,39.80
2018-02-21T13:43:58.793Z,41.53
2018-02-21T13:46:27.039Z,42.83
2018-02-21T13:48:55.732Z,44.67
2018-02-21T13:51:24.172Z,49.00
2018-02-21T13:53:52.379Z,43.97
2018-02-21T13:56:20.592Z,42.43
2018-02-21T13:58:49.561Z,43.43
2018-02-21T14:01:17.823Z,45.63
2018-02-21T14:03:46.024Z,45.10
2018-02-21T14:06:14.220Z,43.00
2018-02-21T14:08:44.041Z,44.87
2018-02-21T14:11:12.237Z,43.70
2018-02-21T14:13:40.468Z,41.03
2018-02-21T14:16:08.753Z,45.43
2018-02-21T14:18:37.720Z,40.90
2018-02-21T14:21:05.971Z,41.87
2018-02-21T14:23:36.247Z,42.57
2018-02-21T14:26:05.218Z,43.13
2018-02-21T14:28:33.417Z,44.13
2018-02-21T14:31:02.465Z,43.67
2018-02-21T14:33:30.762Z,43.33
2018-02-21T14:35:58.957Z,43.23
2018-02-21T14:38:27.945Z,45.57
2018-02-21T14:40:56.140Z,42.43
2018-02-21T14:43:24.349Z,41.40
2018-02-21T14:45:52.661Z,38.73
2018-02-21T14:48:21.313Z,41.13
2018-02-21T14:50:49.597Z,42.50
2018-02-21T14:53:17.895Z,43.30
2018-02-21T14:55:46.089Z,42.03
2018-02-21T14:58:15.153Z,41.43
2018-02-21T15:00:43.503Z,43.37
2018-02-21T15:03:11.711Z,42.03
2018-02-21T15:05:39.928Z,40.73
2018-02-21T15:08:09.088Z,42.00
2018-02-21T15:10:37.288Z,41.03
2018-02-21T15:13:06.352Z,41.00
2018-02-21T15:15:34.704Z,42.50
2018-02-21T15:18:03.008Z,40.87
2018-02-21T15:20:31.287Z,40.90
2018-02-21T15:22:59.606Z,42.87
2018-02-21T15:25:28.721Z,43.90
2018-02-21T15:27:57.214Z,39.13
2018-02-21T15:30:25.448Z,41.37
2018-02-21T15:32:54.417Z,41.67
2018-02-21T15:35:22.690Z,41.27
2018-02-21T15:37:50.934Z,40.70
2018-02-21T15:40:19.199Z,42.57
2018-02-21T15:42:48.154Z,41.47
2018-02-21T15:45:17.159Z,40.07
2018-02-21T15:47:46.168Z,42.07
2018-02-21T15:50:14.388Z,40.83
2018-02-21T15:52:42.615Z,42.13
2018-02-21T15:55:10.810Z,40.87
2018-02-21T15:57:39.012Z,39.83
2018-02-21T16:00:08.100Z,39.23
2018-02-21T16:02:36.321Z,40.40
2018-02-21T16:05:05.317Z,38.40
2018-02-21T16:07:34.372Z,39.00
2018-02-21T16:10:02.554Z,40.33
2018-02-21T16:12:30.759Z,41.77
2018-02-21T16:14:59.751Z,40.30
2018-02-21T16:17:28.780Z,38.47
2018-02-21T16:19:57.052Z,39.47
2018-02-21T16:22:26.513Z,38.33
2018-02-21T16:24:55.517Z,37.87
2018-02-21T16:27:24.716Z,37.83
2018-02-21T16:29:52.920Z,38.90
2018-02-21T16:32:21.143Z,38.67
2018-02-21T16:34:49.321Z,38.30
2018-02-21T16:37:17.557Z,37.60
2018-02-21T16:39:45.804Z,36.03
2018-02-21T16:42:13.997Z,38.47
2018-02-21T16:44:42.256Z,37.53
2018-02-21T16:47:11.042Z,37.40
2018-02-21T16:49:39.293Z,38.80
2018-02-21T16:52:08.682Z,37.97
2018-02-21T16:54:36.881Z,34.73
2018-02-21T16:57:05.849Z,36.50
2018-02-21T16:59:34.077Z,37.20
2018-02-21T17:02:02.278Z,37.73
2018-02-21T17:04:30.474Z,38.87
2018-02-21T17:06:58.700Z,36.50
2018-02-21T17:09:26.902Z,36.10
2018-02-21T17:11:55.153Z,35.60
2018-02-21T17:14:23.373Z,34.83
2018-02-21T17:16:51.598Z,34.23
2018-02-21T17:19:19.808Z,37.50
2018-02-21T17:21:48.833Z,37.50
2018-02-21T17:24:17.062Z,36.07
2018-02-21T17:26:45.283Z,37.73
2018-02-21T17:29:13.520Z,35.13
2018-02-21T17:31:41.760Z,36.93
2018-02-21T17:34:10.120Z,37.13
2018-02-21T17:36:40.193Z,36.37
2018-02-21T17:39:08.411Z,36.23
2018-02-21T17:41:36.635Z,37.23
2018-02-21T17:44:04.959Z,38.40
2018-02-21T17:46:33.257Z,39.60
2018-02-21T17:49:02.224Z,37.73
2018-02-21T17:51:31.319Z,36.87
2018-02-21T17:53:59.589Z,35.97
2018-02-21T17:56:27.793Z,34.17
2018-02-21T17:58:56.039Z,35.87
2018-02-21T18:01:24.244Z,35.83
2018-02-21T18:03:52.457Z,37.17
2018-02-21T18:06:20.853Z,35.63
2018-02-21T18:08:49.098Z,35.20
2018-02-21T18:11:18.081Z,36.50
2018-02-21T18:13:46.500Z,36.00
2018-02-21T18:16:14.931Z,33.97
2018-02-21T18:18:43.249Z,35.50
2018-02-21T18:21:27.068Z,34.60
2018-02-21T18:23:55.301Z,33.93
2018-02-21T18:26:23.510Z,34.17
2018-02-21T18:28:52.518Z,35.63
2018-02-21T18:31:20.803Z,31.87
2018-02-21T18:33:49.016Z,35.27
2018-02-21T18:36:18.059Z,35.30
2018-02-21T18:38:47.193Z,32.87
2018-02-21T18:41:15.444Z,34.03
2018-02-21T18:43:44.000Z,31.70
2018-02-21T18:46:12.980Z,32.40
2018-02-21T18:48:41.717Z,31.97
2018-02-21T18:51:11.659Z,30.23
2018-02-21T18:53:39.983Z,33.40
2018-02-21T18:56:08.211Z,33.33
2018-02-21T18:58:36.525Z,31.93
2018-02-21T19:01:05.488Z,31.90
2018-02-21T19:03:33.740Z,32.83
2018-02-21T19:06:02.033Z,32.40
2018-02-21T19:08:30.290Z,33.40
2018-02-21T19:10:59.819Z,30.70
2018-02-21T19:13:28.147Z,30.63
2018-02-21T19:15:56.408Z,32.47
2018-02-21T19:18:25.387Z,31.87
2018-02-21T19:20:54.655Z,29.93
2018-02-21T19:23:23.027Z,32.00
2018-02-21T19:25:51.225Z,30.63
2018-02-21T19:28:19.482Z,30.97
2018-02-21T19:30:47.822Z,32.67
2018-02-21T19:33:17.300Z,32.97
2018-02-21T19:35:46.337Z,32.13
2018-02-21T19:38:14.551Z,34.30
2018-02-21T19:40:42.813Z,35.53
2018-02-21T19:43:11.167Z,32.97
2018-02-21T19:45:40.181Z,30.40
2018-02-21T19:48:08.399Z,33.63
2018-02-21T19:50:37.409Z,31.67
2018-02-21T19:53:05.637Z,30.53
2018-02-21T19:55:33.880Z,28.53
2018-02-21T19:58:02.136Z,32.77
2018-02-21T20:00:30.360Z,29.20
2018-02-21T20:02:58.619Z,32.30
2018-02-21T20:05:27.674Z,31.33
2018-02-21T20:07:55.928Z,31.47
2018-02-21T20:10:24.175Z,32.33
2018-02-21T20:12:52.699Z,31.87
2018-02-21T20:15:21.690Z,34.70
2018-02-21T20:17:50.744Z,33.87
2018-02-21T20:20:19.117Z,34.97
2018-02-21T20:22:47.638Z,37.33
2018-02-21T20:25:15.958Z,34.37
2018-02-21T20:27:45.252Z,36.83
2018-02-21T20:30:14.297Z,34.43
2018-02-21T20:32:43.273Z,36.07
2018-02-21T20:35:11.784Z,35.70
2018-02-21T20:37:40.052Z,43.70
2018-02-21T20:40:08.376Z,33.93
2018-02-21T20:42:38.068Z,31.27
2018-02-21T20:45:07.531Z,30.53
2018-02-21T20:47:35.763Z,32.87
2018-02-21T20:50:04.096Z,32.13
2018-02-21T20:52:33.698Z,32.00
2018-02-21T20:55:02.002Z,31.20
2018-02-21T20:57:31.645Z,32.20
2018-02-21T21:00:01.052Z,31.03
2018-02-21T21:02:30.100Z,32.90
2018-02-21T21:04:58.325Z,30.37
2018-02-21T21:07:26.529Z,27.67
2018-02-21T21:09:54.744Z,27.77
2018-02-21T21:12:23.025Z,29.07
2018-02-21T21:14:51.246Z,27.00
2018-02-21T21:17:19.477Z,31.23
2018-02-21T21:19:47.861Z,45.17
2018-02-21T21:22:16.124Z,34.90
2018-02-21T21:24:44.576Z,34.10
2018-02-21T21:27:12.929Z,33.57
2018-02-21T21:29:42.250Z,31.60
2018-02-21T21:32:10.428Z,29.53
2018-02-21T21:34:38.948Z,31.63
2018-02-21T21:37:07.158Z,31.60
2018-02-21T21:39:35.429Z,33.53
2018-02-21T21:42:03.724Z,29.80
2018-02-21T21:44:31.953Z,32.10
2018-02-21T21:47:00.155Z,31.30
2018-02-21T21:49:32.866Z,31.73
2018-02-21T21:51:57.501Z,29.73
2018-02-21T21:54:25.785Z,29.03
2018-02-21T21:56:54.851Z,28.63
2018-02-21T21:59:23.140Z,27.33
2018-02-21T22:01:51.369Z,26.50
2018-02-21T22:04:19.757Z,26.67
2018-02-21T22:09:16.720Z,26.60
2018-02-21T22:11:46.846Z,27.07
2018-02-21T22:14:15.769Z,26.47
2018-02-21T22:16:44.028Z,27.23
2018-02-21T22:19:12.322Z,26.67
2018-02-21T22:21:40.525Z,26.10
2018-02-21T22:24:09.496Z,25.30
2018-02-21T22:26:37.728Z,26.03
2018-02-21T22:29:06.225Z,27.27
2018-02-21T22:31:34.525Z,28.60
2018-02-21T22:34:02.915Z,26.30
2018-02-21T22:36:31.140Z,26.93
2018-02-21T22:38:59.368Z,23.87
2018-02-21T22:41:27.692Z,24.20
2018-02-21T22:43:55.896Z,24.73
2018-02-21T22:46:24.308Z,24.20
2018-02-21T22:48:53.340Z,22.70
2018-02-21T22:51:21.549Z,22.73
2018-02-21T22:53:49.753Z,21.80
2018-02-21T22:56:18.900Z,25.90
2018-02-21T22:58:47.125Z,24.57
2018-02-21T23:01:15.554Z,24.10
2018-02-21T23:03:43.891Z,22.20
2018-02-21T23:06:12.964Z,22.43
2018-02-21T23:08:42.710Z,21.90
2018-02-21T23:11:11.766Z,23.87
2018-02-21T23:13:39.936Z,21.77
2018-02-21T23:16:08.145Z,21.80
2018-02-21T23:18:36.672Z,21.50
2018-02-21T23:21:04.892Z,23.63
2018-02-21T23:23:33.092Z,21.87
2018-02-21T23:26:02.118Z,22.40
2018-02-21T23:28:30.317Z,23.33
2018-02-21T23:30:58.660Z,22.93
2018-02-21T23:33:26.888Z,23.60
2018-02-21T23:35:55.097Z,22.20
2018-02-21T23:38:23.312Z,23.43
2018-02-21T23:40:51.593Z,25.27
2018-02-21T23:43:19.832Z,22.63
2018-02-21T23:45:48.056Z,22.27
2018-02-21T23:48:16.341Z,22.60
2018-02-21T23:50:44.520Z,23.33
2018-02-21T23:53:12.724Z,22.70
2018-02-21T23:55:40.983Z,23.10
2018-02-21T23:58:09.958Z,21.97
